createdAt,value
2022-12-23T00:00:38.821Z,85.85
2022-12-23T00:03:05.836Z,86.12
2022-12-23T00:05:38.119Z,86.11
2022-12-23T00:08:07.237Z,86.08
2022-12-23T00:10:37.705Z,86.14
2022-12-23T00:13:20.153Z,86.69
2022-12-23T00:15:47.040Z,86.46
2022-12-23T00:18:13.772Z,86.33
2022-12-23T00:20:40.524Z,86.44
2022-12-23T00:23:07.401Z,86.69
2022-12-23T00:25:51.623Z,86.70
2022-12-23T00:28:19.908Z,86.72
2022-12-23T00:30:55.994Z,87.04
2022-12-23T00:33:26.953Z,86.94
2022-12-23T00:35:53.850Z,87.27
2022-12-23T00:38:42.020Z,87.47
2022-12-23T00:41:27.716Z,87.08
2022-12-23T00:43:54.742Z,87.25
2022-12-23T00:46:21.631Z,87.06
2022-12-23T00:49:03.827Z,87.04
2022-12-23T00:51:31.078Z,87.31
2022-12-23T00:53:57.799Z,87.18
2022-12-23T00:56:24.551Z,87.37
2022-12-23T00:58:51.291Z,87.53
2022-12-23T01:01:33.514Z,87.15
2022-12-23T01:04:15.662Z,87.32
2022-12-23T01:06:42.607Z,87.46
2022-12-23T01:09:09.369Z,87.35
2022-12-23T01:11:36.096Z,87.37
2022-12-23T01:14:03.022Z,87.22
2022-12-23T01:16:29.898Z,87.53
2022-12-23T01:18:56.671Z,87.54
2022-12-23T01:21:23.576Z,87.28
2022-12-23T01:23:50.327Z,87.42
2022-12-23T01:26:17.490Z,87.33
2022-12-23T01:28:44.361Z,87.36
2022-12-23T01:31:11.214Z,87.61
2022-12-23T01:33:38.009Z,87.48
2022-12-23T01:36:07.590Z,87.34
2022-12-23T01:38:35.460Z,87.25
2022-12-23T01:41:02.500Z,87.34
2022-12-23T01:43:51.989Z,87.49
2022-12-23T01:46:18.904Z,87.53
2022-12-23T01:48:50.588Z,87.59
2022-12-23T01:51:26.474Z,87.66
2022-12-23T01:53:57.486Z,87.53
2022-12-23T01:56:29.076Z,87.55
2022-12-23T01:59:00.841Z,87.57
2022-12-23T02:01:44.114Z,87.47
2022-12-23T02:04:16.093Z,87.55
2022-12-23T02:07:00.927Z,87.85
2022-12-23T02:09:30.496Z,87.84
2022-12-23T02:12:12.385Z,87.79
2022-12-23T02:15:08.835Z,87.72
2022-12-23T02:17:58.247Z,87.79
2022-12-23T02:20:42.563Z,88.03
2022-12-23T02:23:29.072Z,87.78
2022-12-23T02:26:00.175Z,87.77
2022-12-23T02:28:42.495Z,87.97
2022-12-23T02:31:24.314Z,87.78
2022-12-23T02:34:01.181Z,87.90
2022-12-23T02:36:38.560Z,87.96
2022-12-23T02:39:18.329Z,88.22
2022-12-23T02:41:56.319Z,88.11
2022-12-23T02:44:34.355Z,88.42
2022-12-23T02:47:08.639Z,88.39
2022-12-23T02:49:40.461Z,88.64
2022-12-23T02:52:13.237Z,88.56
2022-12-23T02:54:46.990Z,88.62
2022-12-23T02:57:18.084Z,88.31
2022-12-23T02:59:49.180Z,88.20
2022-12-23T03:02:16.127Z,88.19
2022-12-23T03:04:43.104Z,88.15
2022-12-23T03:07:20.292Z,88.07
2022-12-23T03:10:18.719Z,88.39
2022-12-23T03:12:53.076Z,88.27
2022-12-23T03:15:42.536Z,88.38
2022-12-23T03:18:10.399Z,88.07
2022-12-23T03:21:04.654Z,88.05
2022-12-23T03:23:39.231Z,87.99
2022-12-23T03:26:17.057Z,87.95
2022-12-23T03:28:54.425Z,88.38
2022-12-23T03:31:27.313Z,87.91
2022-12-23T03:33:59.699Z,87.61
2022-12-23T03:36:34.033Z,87.70
2022-12-23T03:39:03.925Z,87.72
2022-12-23T03:41:35.740Z,87.52
2022-12-23T03:44:16.312Z,87.55
2022-12-23T03:46:51.878Z,87.22
2022-12-23T03:49:24.999Z,87.75
2022-12-23T03:52:11.126Z,87.69
2022-12-23T03:54:45.763Z,87.66
2022-12-23T03:57:14.055Z,87.65
2022-12-23T03:59:50.503Z,87.93
2022-12-23T04:02:38.284Z,87.49
2022-12-23T04:05:20.709Z,87.43
2022-12-23T04:07:53.649Z,87.32
2022-12-23T04:10:22.472Z,86.94
2022-12-23T04:12:50.192Z,87.13
2022-12-23T04:15:22.786Z,86.72
2022-12-23T04:17:51.133Z,87.01
2022-12-23T04:20:18.373Z,86.65
2022-12-23T04:22:45.451Z,86.32
2022-12-23T04:25:13.688Z,86.58
2022-12-23T04:27:41.199Z,86.31
2022-12-23T04:30:10.821Z,86.21
2022-12-23T04:32:37.954Z,86.25
2022-12-23T04:35:05.413Z,86.16
2022-12-23T04:37:32.616Z,86.04
2022-12-23T04:39:59.348Z,86.42
2022-12-23T04:42:26.117Z,86.30
2022-12-23T04:44:52.865Z,86.14
2022-12-23T04:47:19.575Z,85.92
2022-12-23T04:49:46.568Z,86.02
2022-12-23T04:52:13.280Z,86.30
2022-12-23T04:54:45.720Z,86.12
2022-12-23T04:57:13.485Z,85.84
2022-12-23T04:59:40.188Z,85.63
2022-12-23T05:02:08.060Z,85.43
2022-12-23T05:04:35.136Z,85.27
2022-12-23T05:07:02.125Z,85.38
2022-12-23T05:09:28.888Z,85.43
2022-12-23T05:11:55.616Z,85.71
2022-12-23T05:14:22.523Z,85.92
2022-12-23T05:16:49.803Z,86.15
2022-12-23T05:19:16.607Z,86.12
2022-12-23T05:21:43.359Z,85.81
2022-12-23T05:24:10.123Z,85.68
2022-12-23T05:26:37.249Z,85.72
2022-12-23T05:29:04.042Z,85.87
2022-12-23T05:31:30.784Z,85.99
2022-12-23T05:34:04.080Z,85.78
2022-12-23T05:36:32.982Z,85.90
2022-12-23T05:38:59.688Z,85.44
2022-12-23T05:41:26.560Z,85.66
2022-12-23T05:43:53.499Z,85.65
2022-12-23T05:46:26.126Z,85.15
2022-12-23T05:48:54.382Z,84.71
2022-12-23T05:51:21.116Z,84.33
2022-12-23T05:53:47.984Z,84.21
2022-12-23T05:56:14.755Z,83.96
2022-12-23T05:58:41.480Z,83.29
2022-12-23T06:01:08.242Z,83.05
2022-12-23T06:03:35.259Z,82.75
2022-12-23T06:06:02.162Z,82.31
2022-12-23T06:08:28.876Z,82.20
2022-12-23T06:10:55.688Z,82.37
2022-12-23T06:13:22.544Z,82.33
2022-12-23T06:15:49.443Z,82.08
2022-12-23T06:18:16.237Z,82.32
2022-12-23T06:20:46.541Z,81.49
2022-12-23T06:23:13.880Z,81.21
2022-12-23T06:25:40.583Z,81.14
2022-12-23T06:28:08.052Z,81.12
2022-12-23T06:30:35.321Z,81.16
2022-12-23T06:33:02.296Z,81.41
2022-12-23T06:35:29.055Z,81.12
2022-12-23T06:37:57.445Z,81.15
2022-12-23T06:40:24.470Z,81.51
2022-12-23T06:42:51.271Z,82.23
2022-12-23T06:45:18.002Z,82.86
2022-12-23T06:47:45.269Z,82.97
2022-12-23T06:50:12.864Z,83.31
2022-12-23T06:52:39.579Z,83.30
2022-12-23T06:55:06.626Z,83.52
2022-12-23T06:57:33.510Z,83.95
2022-12-23T07:00:00.243Z,84.21
2022-12-23T07:02:27.004Z,84.72
2022-12-23T07:04:53.933Z,85.29
2022-12-23T07:07:20.796Z,85.62
2022-12-23T07:09:47.631Z,85.65
2022-12-23T07:12:14.635Z,86.26
2022-12-23T07:14:41.359Z,86.45
2022-12-23T07:17:08.136Z,86.44
2022-12-23T07:19:35.073Z,86.71
2022-12-23T07:22:01.971Z,87.00
2022-12-23T07:24:28.772Z,87.02
2022-12-23T07:26:56.098Z,87.06
2022-12-23T07:29:22.824Z,87.12
2022-12-23T07:31:50.074Z,87.21
2022-12-23T07:34:16.978Z,87.30
2022-12-23T07:36:44.788Z,87.42
2022-12-23T07:39:11.869Z,87.24
2022-12-23T07:41:38.583Z,87.22
2022-12-23T07:44:06.997Z,87.03
2022-12-23T07:46:33.728Z,86.81
2022-12-23T07:49:00.598Z,86.99
2022-12-23T07:51:27.284Z,86.87
2022-12-23T07:53:54.067Z,87.06
2022-12-23T07:56:21.078Z,87.19
2022-12-23T07:58:52.717Z,86.98
2022-12-23T08:01:20.914Z,86.89
2022-12-23T08:03:48.065Z,86.67
2022-12-23T08:06:16.097Z,86.60
2022-12-23T08:08:44.998Z,86.63
2022-12-23T08:11:12.793Z,86.16
2022-12-23T08:13:41.523Z,86.11
2022-12-23T08:16:09.987Z,85.87
2022-12-23T08:18:40.484Z,85.67
2022-12-23T08:21:18.000Z,85.57
2022-12-23T08:23:47.351Z,84.90
2022-12-23T08:26:22.060Z,84.52
2022-12-23T08:28:53.411Z,84.12
2022-12-23T08:31:24.130Z,83.80
2022-12-23T08:33:54.172Z,83.77
2022-12-23T08:36:23.797Z,83.66
2022-12-23T08:38:53.205Z,83.34
2022-12-23T08:41:25.125Z,83.14
2022-12-23T08:43:52.234Z,82.60
2022-12-23T08:46:19.845Z,81.88
2022-12-23T08:48:49.353Z,81.26
2022-12-23T08:51:19.608Z,80.98
2022-12-23T08:53:47.147Z,80.30
2022-12-23T08:56:20.812Z,79.78
2022-12-23T08:58:50.454Z,79.04
2022-12-23T09:01:19.414Z,78.43
2022-12-23T09:03:47.150Z,78.33
2022-12-23T09:06:28.983Z,78.07
2022-12-23T09:08:57.557Z,78.22
2022-12-23T09:11:26.588Z,78.20
2022-12-23T09:13:53.712Z,77.86
2022-12-23T09:16:20.679Z,77.72
2022-12-23T09:18:47.431Z,78.01
2022-12-23T09:21:18.235Z,77.70
2022-12-23T09:24:00.443Z,77.66
2022-12-23T09:26:29.814Z,78.10
2022-12-23T09:28:57.596Z,78.13
2022-12-23T09:31:29.294Z,78.10
2022-12-23T09:33:59.566Z,77.84
2022-12-23T09:36:26.764Z,76.76
2022-12-23T09:38:55.819Z,75.96
2022-12-23T09:41:33.529Z,75.04
2022-12-23T09:44:16.670Z,74.32
2022-12-23T09:46:51.500Z,73.77
2022-12-23T09:49:20.308Z,73.73
2022-12-23T09:51:49.343Z,73.75
2022-12-23T09:54:19.722Z,73.77
2022-12-23T09:56:52.795Z,74.03
2022-12-23T09:59:36.340Z,74.38
2022-12-23T10:02:28.858Z,74.40
2022-12-23T10:05:26.299Z,74.75
2022-12-23T10:08:02.037Z,74.87
2022-12-23T10:10:35.531Z,74.89
2022-12-23T10:13:06.062Z,75.07
2022-12-23T10:15:39.313Z,74.90
2022-12-23T10:18:22.250Z,75.02
2022-12-23T10:20:56.123Z,74.64
2022-12-23T10:23:38.893Z,74.51
2022-12-23T10:26:18.618Z,73.78
2022-12-23T10:28:45.345Z,73.14
2022-12-23T10:34:17.644Z,72.22
2022-12-23T10:36:55.375Z,72.11
2022-12-23T10:39:33.661Z,71.90
2022-12-23T10:42:14.007Z,72.17
2022-12-23T10:45:11.396Z,72.29
2022-12-23T10:48:13.872Z,72.51
2022-12-23T10:50:46.282Z,72.97
2022-12-23T10:53:24.489Z,73.05
2022-12-23T10:55:51.353Z,73.54
2022-12-23T10:58:18.551Z,73.86
2022-12-23T11:00:52.116Z,74.23
2022-12-23T11:03:24.136Z,74.46
2022-12-23T11:05:52.726Z,74.74
2022-12-23T11:08:21.943Z,74.92
2022-12-23T11:10:50.161Z,75.38
2022-12-23T11:13:32.252Z,75.76
2022-12-23T11:16:24.440Z,76.12
2022-12-23T11:18:55.603Z,76.41
2022-12-23T11:21:22.409Z,76.79
2022-12-23T11:24:13.911Z,77.13
2022-12-23T11:26:40.835Z,77.12
2022-12-23T11:29:12.595Z,77.51
2022-12-23T11:31:43.074Z,77.52
2022-12-23T11:34:20.149Z,77.70
2022-12-23T11:36:58.757Z,78.35
2022-12-23T11:39:33.952Z,78.28
2022-12-23T11:42:12.521Z,78.86
2022-12-23T11:44:43.662Z,78.70
2022-12-23T11:47:29.311Z,78.79
2022-12-23T11:49:59.881Z,79.35
2022-12-23T11:52:29.147Z,79.57
2022-12-23T11:54:58.587Z,79.90
2022-12-23T11:57:39.927Z,80.28
2022-12-23T12:00:18.009Z,80.52
2022-12-23T12:02:47.541Z,80.50
2022-12-23T12:05:35.389Z,80.52
2022-12-23T12:08:11.972Z,80.71
2022-12-23T12:10:40.220Z,80.63
2022-12-23T12:13:22.507Z,80.53
2022-12-23T12:16:04.487Z,80.63
2022-12-23T12:18:32.292Z,80.37
2022-12-23T12:21:04.021Z,80.58
2022-12-23T12:23:47.684Z,80.38
2022-12-23T12:26:37.629Z,80.33
2022-12-23T12:29:16.177Z,80.54
2022-12-23T12:31:46.836Z,80.28
2022-12-23T12:34:44.535Z,80.69
2022-12-23T12:37:12.319Z,80.72
2022-12-23T12:39:42.556Z,80.78
2022-12-23T12:42:20.663Z,80.72
2022-12-23T12:45:22.838Z,80.55
2022-12-23T12:48:16.044Z,81.36
2022-12-23T12:51:11.901Z,81.34
2022-12-23T12:53:46.683Z,81.56
2022-12-23T12:56:24.963Z,81.61
2022-12-23T12:58:51.697Z,81.93
2022-12-23T13:01:33.268Z,82.06
2022-12-23T13:04:29.839Z,81.83
2022-12-23T13:07:19.342Z,82.28
2022-12-23T13:10:07.511Z,82.42
2022-12-23T13:12:34.342Z,82.15
2022-12-23T13:15:05.729Z,82.28
2022-12-23T13:17:40.296Z,82.41
2022-12-23T13:20:20.162Z,82.51
2022-12-23T13:22:51.561Z,82.62
2022-12-23T13:25:26.972Z,82.66
2022-12-23T13:28:08.052Z,82.92
2022-12-23T13:30:44.506Z,82.99
2022-12-23T13:33:38.945Z,83.10
2022-12-23T13:36:16.446Z,82.98
2022-12-23T13:39:12.624Z,83.53
2022-12-23T13:41:44.663Z,83.31
2022-12-23T13:44:13.645Z,83.31
2022-12-23T13:47:11.114Z,83.05
2022-12-23T13:50:00.164Z,82.98
2022-12-23T13:52:38.895Z,83.27
2022-12-23T13:55:36.576Z,83.19
2022-12-23T13:58:10.581Z,83.12
2022-12-23T14:00:37.401Z,83.09
2022-12-23T14:03:16.875Z,83.45
2022-12-23T14:05:45.955Z,83.41
2022-12-23T14:08:20.285Z,83.12
2022-12-23T14:10:56.403Z,83.39
2022-12-23T14:13:27.014Z,83.56
2022-12-23T14:16:10.925Z,83.87
2022-12-23T14:18:53.188Z,83.49
2022-12-23T14:21:36.648Z,83.73
2022-12-23T14:24:19.940Z,83.66
2022-12-23T14:26:46.702Z,83.16
2022-12-23T14:29:34.911Z,83.72
2022-12-23T14:32:01.986Z,83.53
2022-12-23T14:34:32.162Z,83.70
2022-12-23T14:37:21.882Z,83.60
2022-12-23T14:39:49.411Z,83.27
2022-12-23T14:42:33.778Z,83.39
2022-12-23T14:45:29.295Z,83.94
2022-12-23T14:47:56.883Z,83.71
2022-12-23T14:50:41.090Z,83.60
2022-12-23T14:53:25.614Z,83.75
2022-12-23T14:56:10.754Z,84.12
2022-12-23T14:58:41.839Z,84.61
2022-12-23T15:01:15.454Z,84.15
2022-12-23T15:03:46.900Z,84.41
2022-12-23T15:06:18.507Z,84.79
2022-12-23T15:08:47.266Z,84.36
2022-12-23T15:11:22.183Z,84.42
2022-12-23T15:13:52.919Z,84.27
2022-12-23T15:16:20.017Z,84.26
2022-12-23T15:19:12.988Z,84.40
2022-12-23T15:21:39.807Z,84.60
2022-12-23T15:24:14.523Z,84.64
2022-12-23T15:27:09.916Z,84.81
2022-12-23T15:29:31.063Z,84.91
2022-12-23T15:32:00.544Z,84.93
2022-12-23T15:34:31.950Z,84.97
2022-12-23T15:36:59.536Z,85.02
2022-12-23T15:39:31.573Z,84.81
2022-12-23T15:41:58.567Z,84.60
2022-12-23T15:44:34.788Z,84.94
2022-12-23T15:47:01.916Z,84.71
2022-12-23T15:49:28.831Z,84.83
2022-12-23T15:52:07.787Z,84.86
2022-12-23T15:54:44.334Z,84.83
2022-12-23T15:57:17.799Z,85.03
2022-12-23T15:59:44.797Z,84.65
2022-12-23T16:05:08.863Z,85.07
2022-12-23T16:07:38.914Z,85.15
2022-12-23T16:10:16.275Z,84.76
2022-12-23T16:12:45.958Z,85.37
2022-12-23T16:15:21.416Z,85.01
2022-12-23T16:17:48.344Z,85.26
2022-12-23T16:20:16.147Z,85.55
2022-12-23T16:22:44.782Z,85.44
2022-12-23T16:25:21.230Z,85.09
2022-12-23T16:27:54.830Z,84.93
2022-12-23T16:30:25.857Z,85.10
2022-12-23T16:32:56.280Z,85.21
2022-12-23T16:35:25.920Z,85.26
2022-12-23T16:37:57.413Z,85.24
2022-12-23T16:40:24.557Z,85.24
2022-12-23T16:42:51.494Z,85.08
2022-12-23T16:45:18.239Z,85.32
2022-12-23T16:47:44.972Z,84.94
2022-12-23T16:50:14.872Z,84.91
2022-12-23T16:52:41.756Z,85.14
2022-12-23T16:55:15.277Z,85.21
2022-12-23T16:57:42.504Z,85.02
2022-12-23T17:00:16.007Z,85.12
2022-12-23T17:02:44.782Z,85.30
2022-12-23T17:05:17.892Z,84.92
2022-12-23T17:07:45.780Z,85.27
2022-12-23T17:10:15.195Z,85.18
2022-12-23T17:12:43.897Z,84.52
2022-12-23T17:15:20.433Z,85.05
2022-12-23T17:17:49.047Z,84.94
2022-12-23T17:20:16.862Z,85.11
2022-12-23T17:22:47.826Z,84.85
2022-12-23T17:25:21.302Z,84.95
2022-12-23T17:27:53.522Z,84.94
2022-12-23T17:30:24.197Z,84.52
2022-12-23T17:32:57.002Z,84.55
2022-12-23T17:35:25.395Z,84.70
2022-12-23T17:37:52.620Z,84.27
2022-12-23T17:40:19.884Z,84.16
2022-12-23T17:42:47.505Z,84.62
2022-12-23T17:45:26.825Z,84.16
2022-12-23T17:47:53.624Z,84.55
2022-12-23T17:50:20.664Z,84.20
2022-12-23T17:52:47.471Z,84.42
2022-12-23T17:55:20.073Z,84.67
2022-12-23T17:57:47.336Z,84.60
2022-12-23T18:00:25.181Z,84.71
2022-12-23T18:02:56.563Z,84.80
2022-12-23T18:05:26.982Z,84.42
2022-12-23T18:07:55.358Z,84.40
2022-12-23T18:10:25.319Z,83.98
2022-12-23T18:12:57.068Z,84.10
2022-12-23T18:15:27.230Z,83.77
2022-12-23T18:17:54.117Z,83.94
2022-12-23T18:20:23.252Z,84.06
2022-12-23T18:22:52.676Z,83.82
2022-12-23T18:25:23.409Z,83.81
2022-12-23T18:27:51.256Z,83.71
2022-12-23T18:30:18.248Z,83.87
2022-12-23T18:32:45.307Z,83.98
2022-12-23T18:35:34.767Z,83.75
2022-12-23T18:38:01.671Z,83.45
2022-12-23T18:40:32.938Z,83.58
2022-12-23T18:43:00.568Z,83.86
2022-12-23T18:45:28.347Z,84.01
2022-12-23T18:47:55.865Z,83.90
2022-12-23T18:50:22.901Z,83.80
2022-12-23T18:52:49.769Z,83.82
2022-12-23T18:55:16.631Z,83.91
2022-12-23T18:57:43.364Z,84.05
2022-12-23T19:00:14.666Z,83.71
2022-12-23T19:02:41.682Z,83.59
2022-12-23T19:05:15.614Z,83.70
2022-12-23T19:07:42.573Z,83.61
2022-12-23T19:10:10.594Z,83.58
2022-12-23T19:12:38.353Z,83.62
2022-12-23T19:15:05.860Z,83.47
2022-12-23T19:17:32.577Z,83.60
2022-12-23T19:19:59.521Z,83.40
2022-12-23T19:22:26.398Z,83.35
2022-12-23T19:25:05.372Z,83.17
2022-12-23T19:27:33.469Z,83.14
2022-12-23T19:30:00.362Z,82.95
2022-12-23T19:32:27.156Z,82.98
2022-12-23T19:34:53.835Z,82.93
2022-12-23T19:37:20.597Z,82.79
2022-12-23T19:39:48.085Z,82.76
2022-12-23T19:42:14.919Z,82.78
2022-12-23T19:44:41.621Z,82.77
2022-12-23T19:47:08.421Z,82.61
2022-12-23T19:49:35.270Z,82.22
2022-12-23T19:52:02.436Z,82.06
2022-12-23T19:54:30.392Z,82.02
2022-12-23T19:57:12.442Z,82.16
2022-12-23T19:59:56.103Z,81.95
2022-12-23T20:02:23.519Z,82.10
2022-12-23T20:04:50.482Z,81.93
2022-12-23T20:07:17.215Z,82.00
2022-12-23T20:09:44.047Z,82.18
2022-12-23T20:12:10.920Z,81.76
2022-12-23T20:14:37.820Z,81.99
2022-12-23T20:17:04.719Z,81.61
2022-12-23T20:19:31.440Z,81.99
2022-12-23T20:21:58.260Z,81.69
2022-12-23T20:24:25.197Z,81.85
2022-12-23T20:26:52.127Z,81.78
2022-12-23T20:29:18.912Z,81.26
2022-12-23T20:31:46.002Z,81.68
2022-12-23T20:34:16.074Z,81.51
2022-12-23T20:36:42.855Z,81.19
2022-12-23T20:39:09.937Z,81.24
2022-12-23T20:41:52.517Z,81.16
2022-12-23T20:44:36.525Z,80.99
2022-12-23T20:47:06.100Z,80.71
2022-12-23T20:49:33.560Z,80.71
2022-12-23T20:52:00.408Z,80.67
2022-12-23T20:54:32.596Z,80.35
2022-12-23T20:57:02.530Z,80.24
2022-12-23T20:59:29.463Z,80.63
2022-12-23T21:01:56.618Z,80.73
2022-12-23T21:04:23.555Z,80.73
2022-12-23T21:06:50.570Z,81.28
2022-12-23T21:09:17.335Z,81.25
2022-12-23T21:11:46.375Z,80.98
2022-12-23T21:14:15.062Z,81.14
2022-12-23T21:16:43.749Z,81.25
2022-12-23T21:19:16.550Z,81.32
2022-12-23T21:21:44.296Z,81.25
2022-12-23T21:24:11.940Z,81.22
2022-12-23T21:26:40.334Z,81.23
2022-12-23T21:29:10.115Z,81.44
2022-12-23T21:31:39.296Z,81.58
2022-12-23T21:34:06.789Z,81.35
2022-12-23T21:36:36.813Z,81.13
2022-12-23T21:39:05.183Z,81.05
2022-12-23T21:41:37.425Z,80.67
2022-12-23T21:44:05.233Z,80.11
2022-12-23T21:46:32.254Z,79.92
2022-12-23T21:48:59.507Z,80.13
2022-12-23T21:51:35.015Z,80.28
2022-12-23T21:54:06.051Z,80.26
2022-12-23T21:56:32.883Z,80.55
2022-12-23T21:59:02.016Z,80.54
2022-12-23T22:01:29.003Z,80.25
2022-12-23T22:03:56.992Z,79.78
2022-12-23T22:06:27.429Z,79.35
2022-12-23T22:08:55.321Z,79.02
2022-12-23T22:11:25.903Z,78.59
2022-12-23T22:13:55.080Z,77.81
2022-12-23T22:16:23.563Z,78.10
2022-12-23T22:18:51.217Z,77.71
2022-12-23T22:21:21.008Z,77.60
2022-12-23T22:23:49.346Z,77.53
2022-12-23T22:26:24.225Z,77.71
2022-12-23T22:28:53.029Z,77.10
2022-12-23T22:31:29.520Z,77.61
2022-12-23T22:33:56.395Z,78.24
2022-12-23T22:36:23.282Z,78.11
2022-12-23T22:38:55.913Z,78.31
2022-12-23T22:41:23.936Z,78.37
2022-12-23T22:43:51.065Z,78.61
2022-12-23T22:46:18.465Z,78.65
2022-12-23T22:48:45.745Z,78.33
2022-12-23T22:51:17.619Z,78.64
2022-12-23T22:53:45.074Z,78.58
2022-12-23T22:56:14.833Z,79.16
2022-12-23T22:58:41.693Z,78.98
2022-12-23T23:01:21.545Z,79.03
2022-12-23T23:03:51.204Z,79.08
2022-12-23T23:06:18.862Z,79.23
2022-12-23T23:08:45.662Z,78.99
2022-12-23T23:11:12.388Z,79.41
2022-12-23T23:13:39.103Z,79.46
2022-12-23T23:16:06.177Z,79.39
2022-12-23T23:18:33.576Z,79.74
2022-12-23T23:21:00.751Z,79.86
2022-12-23T23:23:27.470Z,80.17
2022-12-23T23:25:54.160Z,80.16
2022-12-23T23:28:21.839Z,79.82
2022-12-23T23:30:48.632Z,80.16
2022-12-23T23:33:15.392Z,80.31
2022-12-23T23:35:42.170Z,80.11
2022-12-23T23:38:09.334Z,79.62
2022-12-23T23:40:36.090Z,79.43
2022-12-23T23:43:03.432Z,79.87
2022-12-23T23:45:30.391Z,80.79
2022-12-23T23:47:57.352Z,81.90
2022-12-23T23:50:24.100Z,82.50
2022-12-23T23:52:50.929Z,82.66
2022-12-23T23:55:17.774Z,83.25
2022-12-23T23:57:48.707Z,83.33
